• Join FlightAware (Why Join?)
  • Login
  • US Flag 
04:35PM EST


 

Airport Tracker/Info


-or-


 

Live Flight TrackerFlight Track Log ✈ N828AF ✈ 18-Apr-2013 ✈ KMQJ - KCHS

Flight Track Log - Related Links

Times and Time Zones

All times are in EDT time to prevent confusion due to time zone crossing. See the N828AF flight status page for this flight to view local times or setup timezone preferences in your user account.

Time Position Orientation Groundspeed Altitude Reporting Facility
EDT Latitude Longitude Course Direction KTS MPH feet Rate Location/Type
08:22AM 39.8000 -85.9333 166° South 179 206 2,700  Level Indianapolis TRACON
08:23AM 39.7500 -85.9167 166° South 214 246 3,100 900 Climbing Indianapolis TRACON
08:23AM 39.7167 -85.9500 218° Southwest 193 222 4,300 1,320 Climbing Indianapolis TRACON
08:24AM 39.6667 -86.0000 218° Southwest 209 241 5,500 1,320 Climbing Indianapolis TRACON
08:25AM 39.6339 -86.0128 197° South 229 264 6,800 1,800 Climbing Indianapolis Center
08:26AM 39.5772 -86.0383 199° South 214 246 8,900 2,160 Climbing Indianapolis Center
08:27AM 39.5103 -86.0686 199° South 212 244 11,200 1,860 Climbing Indianapolis Center
08:28AM 39.4550 -86.0947 200° South 212 244 12,700 1,500 Climbing Indianapolis Center
08:29AM 39.3939 -86.1089 190° South 218 251 14,300 1,560 Climbing Indianapolis Center
08:30AM 39.3367 -86.0633 148° Southeast 237 273 16,000 1,380 Climbing Indianapolis Center
08:31AM 39.2794 -86.0031 141° Southeast 254 292 17,200 1,320 Climbing Indianapolis Center
08:32AM 39.2225 -85.9433 141° Southeast 259 298 18,700 1,380 Climbing Indianapolis Center
08:33AM 39.1631 -85.8825 142° Southeast 267 307 20,100 1,260 Climbing Indianapolis Center
08:34AM 39.1017 -85.8194 141° Southeast 275 316 21,400 1,320 Climbing Indianapolis Center
08:35AM 39.0428 -85.7575 141° Southeast 274 315 22,900 1,320 Climbing Indianapolis Center
08:36AM 38.9850 -85.6986 142° Southeast 267 307 24,200 1,260 Climbing Indianapolis Center
08:37AM 38.9256 -85.6367 141° Southeast 271 312 25,500 1,140 Climbing Indianapolis Center
08:38AM 38.8675 -85.5775 142° Southeast 265 305 26,600 1,020 Climbing Indianapolis Center
08:39AM 38.8056 -85.5142 141° Southeast 280 322 27,600 1,080 Climbing Indianapolis Center
08:40AM 38.7444 -85.4503 141° Southeast 282 325 28,800 1,020 Climbing Indianapolis Center
08:42AM 38.6819 -85.3881 142° Southeast 281 323 29,800 900 Climbing Indianapolis Center
08:43AM 38.6069 -85.3111 141° Southeast 284 327 30,700 540 Climbing Indianapolis Center
08:44AM 38.5400 -85.2431 142° Southeast 300 345 31,000 120 Climbing Indianapolis Center
08:45AM 38.4658 -85.1694 142° Southeast 322 371 31,000  Level Indianapolis Center
08:46AM 38.3900 -85.0914 141° Southeast 342 394 31,000  Level Indianapolis Center
08:47AM 38.3097 -85.0133 143° Southeast 361 415 31,000  Level Indianapolis Center
08:48AM 38.2306 -84.9333 142° Southeast 364 419 31,000  Level Indianapolis Center
08:49AM 38.1497 -84.8503 141° Southeast 373 429 31,000  Level Indianapolis Center
08:50AM 38.0681 -84.7692 142° Southeast 373 429 31,000  Level Indianapolis Center
08:51AM 37.9717 -84.6739 142° Southeast 376 433 31,000  Level Indianapolis Center
08:52AM 37.8892 -84.5917 142° Southeast 377 434 31,000  Level Indianapolis Center
08:53AM 37.8078 -84.5117 142° Southeast 372 428 31,000  Level Indianapolis Center
08:54AM 37.7250 -84.4303 142° Southeast 376 433 31,000  Level Indianapolis Center
08:55AM 37.6419 -84.3500 143° Southeast 374 430 31,000  Level Indianapolis Center
08:56AM 37.5586 -84.2689 142° Southeast 378 435 31,000  Level Indianapolis Center
08:57AM 37.4761 -84.1872 142° Southeast 378 435 31,000  Level Indianapolis Center
08:58AM 37.3925 -84.1050 142° Southeast 381 438 31,000  Level Indianapolis Center
08:59AM 37.2950 -84.0106 142° Southeast 381 438 31,000  Level Indianapolis Center
09:00AM 37.2119 -83.9286 142° Southeast 380 437 31,000  Level Indianapolis Center
09:01AM 37.1286 -83.8486 143° Southeast 377 434 31,000  Level Indianapolis Center
09:02AM 37.0458 -83.7692 143° Southeast 377 434 31,000  Level Indianapolis Center
09:03AM 36.9628 -83.6897 143° Southeast 378 435 31,000  Level Indianapolis Center
09:04AM 36.8792 -83.6100 143° Southeast 377 434 31,000  Level Indianapolis Center
09:05AM 36.7964 -83.5311 143° Southeast 377 434 31,000  Level Indianapolis Center
09:06AM 36.7000 -83.4389 142° Southeast 376 433 31,000  Level Indianapolis Center
09:07AM 36.6181 -83.3619 143° Southeast 373 429 31,000  Level Indianapolis Center
09:07AM 36.5861 -83.3356 146° Southeast 382 440 31,000  Level Atlanta Center
09:08AM 36.5022 -83.2589 144° Southeast 382 440 31,000  Level Atlanta Center
09:09AM 36.4203 -83.1794 142° Southeast 382 440 31,000  Level Atlanta Center
09:10AM 36.3361 -83.1006 143° Southeast 382 440 31,000  Level Atlanta Center
09:11AM 36.2542 -83.0217 142° Southeast 382 440 31,000  Level Atlanta Center
09:12AM 36.1703 -82.9456 144° Southeast 382 440 31,000  Level Atlanta Center
09:13AM 36.0881 -82.8669 142° Southeast 382 440 31,000  Level Atlanta Center
09:14AM 36.0061 -82.7911 143° Southeast 382 440 31,000  Level Atlanta Center
09:15AM 35.9197 -82.7156 145° Southeast 382 440 31,000  Level Atlanta Center
09:16AM 35.8333 -82.6453 147° Southeast 382 440 31,000  Level Atlanta Center
09:17AM 35.7469 -82.5725 146° Southeast 377 434 31,000  Level Atlanta Center
09:18AM 35.6628 -82.5025 146° Southeast 377 434 31,000  Level Atlanta Center
09:19AM 35.5764 -82.4328 147° Southeast 377 434 31,000  Level Atlanta Center
09:20AM 35.4878 -82.3606 146° Southeast 377 434 31,000  Level Atlanta Center
09:21AM 35.4011 -82.2933 148° Southeast 377 434 31,000  Level Atlanta Center
09:22AM 35.3125 -82.2214 146° Southeast 377 434 31,000  Level Atlanta Center
09:23AM 35.2364 -82.1594 146° Southeast 377 434 31,000  Level Atlanta Center
09:24AM 35.1500 -82.0906 147° Southeast 377 434 31,000  Level Atlanta Center
09:25AM 35.0633 -82.0189 146° Southeast 377 434 31,000  Level Atlanta Center
09:26AM 34.9764 -81.9500 147° Southeast 377 434 31,000  Level Atlanta Center
09:27AM 34.8875 -81.8789 147° Southeast 371 427 31,000  Level Atlanta Center
09:28AM 34.8028 -81.8103 146° Southeast 371 427 31,000 -60 Level Atlanta Center
09:30AM 34.6442 -81.6839 147° Southeast 383 441 30,900 -540 Descending Jacksonville Center
09:31AM 34.5539 -81.6119 147° Southeast 383 441 29,500 -1,200 Descending Jacksonville Center
09:32AM 34.4572 -81.5353 147° Southeast 391 450 28,600 -960 Descending Jacksonville Center
09:33AM 34.3644 -81.4614 147° Southeast 405 466 27,600 -840 Descending Jacksonville Center
09:34AM 34.2861 -81.3594 133° Southeast 410 472 27,000 -540 Descending Jacksonville Center
09:35AM 34.2367 -81.2372 116° Southeast 402 463 26,600 -1,020 Descending Jacksonville Center
09:36AM 34.1478 -81.1511 141° Southeast 402 463 25,000 -1,500 Descending Jacksonville Center
09:37AM 34.0428 -81.1006 158° South 397 457 23,600 -1,680 Descending Jacksonville Center
09:38AM 33.9461 -81.0500 157° South 387 445 21,700 -2,280 Descending Jacksonville Center
09:39AM 33.8472 -81.0022 158° South 382 440 19,100 -2,340 Descending Jacksonville Center
09:40AM 33.7567 -80.9517 155° Southeast 377 434 17,100 -2,220 Descending Jacksonville Center
09:41AM 33.6664 -80.9086 158° South 364 419 14,800 -1,980 Descending Jacksonville Center
09:42AM 33.5822 -80.8633 156° South 350 403 13,200 -780 Descending Jacksonville Center
09:43AM 33.5044 -80.8225 156° South 331 381 13,300  Climbing Jacksonville Center
09:44AM 33.4244 -80.7822 157° South 319 367 13,200 -60 Descending Jacksonville Center
09:45AM 33.3381 -80.7394 158° South 319 367 13,200 -180 Level Jacksonville Center
09:46AM 33.2539 -80.6969 157° South 319 367 12,900 -960 Descending Jacksonville Center
09:47AM 33.1697 -80.6542 157° South 324 373 11,300 -1,800 Descending Jacksonville Center
09:48AM 33.1078 -80.5889 139° Southeast 314 361 9,400 -1,680 Descending Jacksonville Center
09:49AM 33.0647 -80.5131 124° Southeast 287 330 8,000 -720 Descending Jacksonville Center
09:50AM 33.0194 -80.4300 123° Southeast 275 316 8,000  Level Jacksonville Center
09:51AM 32.9761 -80.3594 126° Southeast 263 303 8,000 -360 Level Jacksonville Center
09:52AM 32.9189 -80.3067 142° Southeast 244 281 7,300 -900 Descending Jacksonville Center
09:53AM 32.8453 -80.2914 170° South 244 281 6,200 -1,140 Descending Jacksonville Center
09:55AM 32.8747 -80.1533 79° East  Level Estimated
10:02AM 32.8833 -80.0333 79° East  Level FlightAware Approximate
10:03AM 32.8986 -80.0405 79° East  Level Estimated
10:04AM 32.8986 -80.0405 79° East  Level Estimated
10:05AM 32.8986 -80.0405 79° East  Level Estimated
10:06AM 32.8986 -80.0405 79° East  Level Estimated
10:07AM 32.8986 -80.0405 79° East  Level Estimated